Time;durP1;ratioP1;P1;durP2;ratioP2;P2;SDS_P1;SDS_P2;PMS_P1;PMS_P2;Temp;Humidity;BMP_temperature;BMP_pressure;BME280_temperature;BME280_humidity;BME280_pressure;Samples;Min_cycle;Max_cycle;Signal;HPM_P1;HPM_P2
2023/12/24 00:01:04;;;;;;;39.72;22.92;;;;;;;6.26;100.00;92371.94;5128809;27;20371;-74
2023/12/24 00:03:31;;;;;;;47.25;27.55;;;;;;;6.33;100.00;92382.88;5130487;27;20047;-74
2023/12/24 00:05:58;;;;;;;44.83;26.63;;;;;;;6.46;100.00;92394.00;5131392;27;20043;-74
2023/12/24 00:08:25;;;;;;;54.30;30.27;;;;;;;6.45;100.00;92383.03;5135410;27;20054;-74
2023/12/24 00:10:52;;;;;;;57.47;32.03;;;;;;;6.59;100.00;92408.44;5133172;27;20050;-74
2023/12/24 00:13:20;;;;;;;50.70;29.48;;;;;;;6.65;100.00;92405.09;5138922;27;20050;-74
2023/12/24 00:15:47;;;;;;;47.88;27.83;;;;;;;6.68;100.00;92405.44;5128563;27;20153;-74
2023/12/24 00:18:14;;;;;;;42.47;26.65;;;;;;;6.26;100.00;92417.84;5130855;27;20276;-74
2023/12/24 00:20:41;;;;;;;41.85;24.35;;;;;;;6.18;100.00;92420.59;5136221;27;20049;-74
2023/12/24 00:23:09;;;;;;;45.00;25.42;;;;;;;6.30;100.00;92406.25;5131856;27;20039;-74
2023/12/24 00:25:37;;;;;;;56.67;28.45;;;;;;;6.47;100.00;92424.41;5131541;27;20057;-74
2023/12/24 00:28:05;;;;;;;48.97;29.58;;;;;;;6.43;100.00;92430.13;5139853;27;20053;-73
2023/12/24 00:30:34;;;;;;;47.63;29.02;;;;;;;6.28;100.00;92408.22;5134978;27;20499;-73
2023/12/24 00:33:01;;;;;;;51.15;30.00;;;;;;;6.49;100.00;92440.28;5137613;27;20065;-73
2023/12/24 00:35:28;;;;;;;48.13;27.38;;;;;;;6.53;100.00;92433.03;5134765;27;20065;-73
2023/12/24 00:37:58;;;;;;;50.95;28.48;;;;;;;6.59;100.00;92437.31;5137860;27;20051;-74
2023/12/24 00:40:25;;;;;;;56.60;33.15;;;;;;;6.60;100.00;92431.22;5137063;27;20122;-74
2023/12/24 00:42:52;;;;;;;52.38;29.33;;;;;;;6.61;100.00;92432.03;5136609;27;20126;-74
2023/12/24 00:45:19;;;;;;;45.13;27.50;;;;;;;6.45;100.00;92418.75;5134190;27;20049;-73
2023/12/24 00:47:47;;;;;;;46.63;26.35;;;;;;;6.71;100.00;92445.09;5134544;27;20044;-73
2023/12/24 00:50:14;;;;;;;39.75;23.80;;;;;;;6.70;100.00;92437.66;5137344;27;20876;-73
2023/12/24 00:52:41;;;;;;;37.60;23.50;;;;;;;6.50;100.00;92444.44;5136521;27;20053;-73
2023/12/24 00:55:08;;;;;;;33.10;20.95;;;;;;;6.56;100.00;92447.91;5132605;27;20053;-74
2023/12/24 00:57:37;;;;;;;38.60;22.65;;;;;;;6.52;100.00;92460.31;5133976;27;20043;-73
2023/12/24 01:00:05;;;;;;;59.15;36.33;;;;;;;6.63;100.00;92453.75;5133858;27;20062;-73
2023/12/24 01:02:32;;;;;;;48.75;31.08;;;;;;;6.66;100.00;92455.91;5135693;27;20054;-74
2023/12/24 01:05:01;;;;;;;60.40;34.17;;;;;;;6.53;100.00;92469.53;5134894;27;20057;-74
2023/12/24 01:07:27;;;;;;;100.15;50.42;;;;;;;6.57;100.00;92464.03;5132811;27;20491;-73
2023/12/24 01:09:54;;;;;;;90.63;44.78;;;;;;;6.60;100.00;92468.69;5133023;27;20047;-74
2023/12/24 01:12:21;;;;;;;86.82;43.50;;;;;;;6.62;100.00;92466.75;5142288;27;20133;-73
2023/12/24 01:14:48;;;;;;;67.47;37.95;;;;;;;6.66;100.00;92468.69;5137028;27;20051;-74
2023/12/24 01:17:15;;;;;;;100.80;55.70;;;;;;;6.63;100.00;92476.72;5137537;27;20039;-74
2023/12/24 01:19:42;;;;;;;179.90;101.78;;;;;;;6.62;100.00;92467.50;5137454;27;20042;-74
2023/12/24 01:22:11;;;;;;;105.53;59.05;;;;;;;6.69;100.00;92475.16;5135179;27;20130;-74
2023/12/24 01:24:37;;;;;;;51.97;31.55;;;;;;;6.58;100.00;92476.59;5132278;27;20069;-74
2023/12/24 01:27:05;;;;;;;66.47;36.92;;;;;;;6.58;100.00;92470.69;5137193;27;20035;-74
2023/12/24 01:29:33;;;;;;;136.63;77.18;;;;;;;6.64;100.00;92480.88;5133003;27;20043;-74
2023/12/24 01:31:59;;;;;;;63.88;37.30;;;;;;;6.52;100.00;92474.81;5133296;27;20047;-73
2023/12/24 01:34:26;;;;;;;101.53;58.95;;;;;;;6.53;100.00;92484.81;5134896;27;20047;-73
2023/12/24 01:36:53;;;;;;;74.35;45.25;;;;;;;6.58;100.00;92483.44;5130342;27;20039;-74
2023/12/24 01:39:21;;;;;;;68.45;40.65;;;;;;;6.53;100.00;92479.72;5133671;27;20047;-74
2023/12/24 01:41:49;;;;;;;58.22;34.20;;;;;;;6.54;100.00;92483.06;5133232;27;20047;-74
2023/12/24 01:44:16;;;;;;;98.05;56.15;;;;;;;6.63;100.00;92492.03;5131728;27;20051;-74
2023/12/24 01:46:45;;;;;;;60.22;34.58;;;;;;;6.48;100.00;92487.19;5132006;27;20065;-74
2023/12/24 01:49:14;;;;;;;59.13;34.13;;;;;;;6.54;100.00;92491.50;5135951;27;20043;-74
2023/12/24 01:51:42;;;;;;;132.68;75.28;;;;;;;6.41;100.00;92466.03;5133861;27;20053;-74
2023/12/24 01:54:09;;;;;;;154.48;84.28;;;;;;;6.57;100.00;92490.31;5130671;27;20053;-73
2023/12/24 01:56:40;;;;;;;234.85;123.80;;;;;;;6.49;100.00;92470.91;5132429;27;20054;-74
2023/12/24 01:59:08;;;;;;;70.53;40.78;;;;;;;6.60;100.00;92495.03;5136751;27;20043;-73
2023/12/24 02:01:36;;;;;;;62.40;36.70;;;;;;;6.54;100.00;92501.69;5132385;27;20053;-74
2023/12/24 02:04:03;;;;;;;99.85;56.75;;;;;;;6.59;100.00;92505.41;5132233;27;20495;-74
2023/12/24 02:06:31;;;;;;;62.80;37.10;;;;;;;6.53;100.00;92499.38;5130445;27;20051;-74
2023/12/24 02:08:58;;;;;;;49.05;30.05;;;;;;;6.48;100.00;92496.63;5138979;27;20038;-74
2023/12/24 02:11:25;;;;;;;45.40;26.38;;;;;;;6.41;100.00;92500.00;5137328;27;20052;-74
2023/12/24 02:13:53;;;;;;;47.85;29.25;;;;;;;6.43;100.00;92514.31;5130932;27;20088;-74
2023/12/24 02:16:22;;;;;;;44.25;26.15;;;;;;;6.45;100.00;92514.88;5130128;27;20053;-74
2023/12/24 02:18:49;;;;;;;42.95;26.42;;;;;;;6.19;100.00;92488.47;5130376;27;20061;-74
2023/12/24 02:21:17;;;;;;;40.45;24.13;;;;;;;6.33;100.00;92520.63;5131362;27;20135;-74
2023/12/24 02:23:44;;;;;;;43.25;27.40;;;;;;;6.24;100.00;92517.50;5138178;27;20433;-74
2023/12/24 02:26:21;;;;;;;290.65;176.50;;;;;;;6.25;100.00;92510.63;5131828;27;20071;-74
2023/12/24 02:28:52;;;;;;;62.25;37.42;;;;;;;6.26;100.00;92512.19;5132732;27;20043;-73
2023/12/24 02:31:21;;;;;;;51.88;32.15;;;;;;;6.25;100.00;92524.16;5134897;27;20850;-73
2023/12/24 02:33:52;;;;;;;40.03;25.40;;;;;;;6.24;100.00;92517.50;5131274;27;20050;-74
2023/12/24 02:36:21;;;;;;;59.35;34.92;;;;;;;6.25;100.00;92529.25;5130662;27;20073;-74
2023/12/24 02:38:49;;;;;;;74.78;41.05;;;;;;;6.22;100.00;92521.22;5133597;27;20133;-74
2023/12/24 02:41:16;;;;;;;58.13;33.83;;;;;;;6.25;100.00;92519.06;5135943;27;20174;-75
2023/12/24 02:43:43;;;;;;;49.45;28.65;;;;;;;6.27;100.00;92523.97;5139415;27;20062;-75
2023/12/24 02:46:10;;;;;;;34.35;20.05;;;;;;;6.26;100.00;92527.50;5133824;27;20518;-75
2023/12/24 02:48:36;;;;;;;41.22;23.20;;;;;;;6.22;100.00;92533.97;5131425;27;20136;-74
2023/12/24 02:51:04;;;;;;;49.75;29.08;;;;;;;6.18;100.00;92517.50;5134212;27;20184;-74
2023/12/24 02:53:32;;;;;;;42.58;27.13;;;;;;;6.28;100.00;92538.28;5130386;27;20047;-75
2023/12/24 02:55:59;;;;;;;48.78;28.42;;;;;;;6.25;100.00;92544.56;5129514;27;20051;-74
2023/12/24 02:58:27;;;;;;;50.60;28.55;;;;;;;6.26;100.00;92546.13;5139723;27;20823;-74
2023/12/24 03:00:53;;;;;;;54.55;31.48;;;;;;;6.25;100.00;92554.75;5131212;27;20473;-73
2023/12/24 03:03:20;;;;;;;45.45;28.85;;;;;;;6.22;100.00;92549.28;5129019;27;20059;-74
2023/12/24 03:05:47;;;;;;;49.38;29.58;;;;;;;6.17;100.00;92551.63;5131724;27;20046;-75
2023/12/24 03:08:15;;;;;;;49.33;28.48;;;;;;;6.05;100.00;92564.19;5133742;27;20122;-74
2023/12/24 03:10:44;;;;;;;34.13;22.52;;;;;;;6.05;100.00;92564.19;5134311;27;20048;-74
2023/12/24 03:13:10;;;;;;;26.50;16.20;;;;;;;5.85;100.00;92559.88;5134283;27;20046;-74
2023/12/24 03:15:37;;;;;;;23.25;14.65;;;;;;;5.78;100.00;92559.88;5133685;27;20397;-74
2023/12/24 03:18:05;;;;;;;21.23;13.60;;;;;;;5.83;100.00;92574.59;5134865;27;20047;-74
2023/12/24 03:20:32;;;;;;;21.33;13.05;;;;;;;5.81;100.00;92584.19;5130431;27;20065;-74
2023/12/24 03:22:59;;;;;;;20.02;13.63;;;;;;;5.78;100.00;92579.50;5131031;27;20050;-74
2023/12/24 03:25:25;;;;;;;20.75;13.57;;;;;;;5.61;100.00;92583.19;5136828;27;20039;-74
2023/12/24 03:27:54;;;;;;;21.35;14.32;;;;;;;5.65;100.00;92577.72;5138710;27;20401;-74
2023/12/24 03:30:21;;;;;;;33.15;18.90;;;;;;;5.29;100.00;92544.75;5130332;27;20043;-74
2023/12/24 03:32:48;;;;;;;36.75;20.67;;;;;;;5.56;100.00;92582.22;5131697;27;20049;-74
2023/12/24 03:35:15;;;;;;;32.22;18.40;;;;;;;5.55;100.00;92589.06;5140074;27;20046;-74
2023/12/24 03:37:42;;;;;;;30.33;18.50;;;;;;;5.54;100.00;92597.69;5139028;27;20038;-75
2023/12/24 03:40:09;;;;;;;26.95;17.08;;;;;;;5.47;100.00;92605.31;5130971;27;20414;-75
2023/12/24 03:42:36;;;;;;;18.85;12.48;;;;;;;5.53;100.00;92608.84;5129330;27;20050;-75
2023/12/24 03:45:06;;;;;;;16.08;10.43;;;;;;;5.47;100.00;92607.84;5123768;27;20053;-74
2023/12/24 03:47:33;;;;;;;18.08;11.55;;;;;;;5.51;100.00;92618.44;5136413;27;20467;-74
2023/12/24 03:50:00;;;;;;;21.30;13.00;;;;;;;5.54;100.00;92625.72;5133063;27;20042;-74
2023/12/24 03:52:27;;;;;;;26.85;16.40;;;;;;;5.56;100.00;92633.94;5132793;27;20057;-74
2023/12/24 03:54:54;;;;;;;32.67;18.50;;;;;;;5.46;100.00;92621.56;5131497;27;20430;-75
2023/12/24 03:57:20;;;;;;;47.45;25.77;;;;;;;5.51;100.00;92632.97;5130363;27;20067;-74
2023/12/24 03:59:47;;;;;;;36.95;21.73;;;;;;;5.51;100.00;92645.69;5137369;27;20387;-75
2023/12/24 04:02:16;;;;;;;29.40;16.55;;;;;;;5.56;100.00;92649.22;5135792;27;20491;-75
2023/12/24 04:04:46;;;;;;;33.97;19.92;;;;;;;5.50;100.00;92647.44;5140827;27;20051;-74
2023/12/24 04:07:12;;;;;;;37.85;21.30;;;;;;;5.58;100.00;92671.97;5136384;27;20532;-74
2023/12/24 04:09:42;;;;;;;25.45;14.25;;;;;;;5.53;100.00;92659.00;5141190;27;20047;-75
2023/12/24 04:12:09;;;;;;;17.77;11.38;;;;;;;5.59;100.00;92659.03;5137020;27;20050;-75
2023/12/24 04:14:37;;;;;;;14.35;8.25;;;;;;;5.64;100.00;92680.63;5139828;27;20092;-74
2023/12/24 04:17:04;;;;;;;19.77;10.25;;;;;;;5.58;100.00;92682.16;5134371;27;20047;-74
2023/12/24 04:19:33;;;;;;;12.65;8.35;;;;;;;5.49;100.00;92671.34;5135534;27;20049;-75
2023/12/24 04:22:00;;;;;;;15.88;9.73;;;;;;;5.52;100.00;92681.16;5134833;27;20461;-75
2023/12/24 04:24:27;;;;;;;24.83;12.07;;;;;;;5.43;100.00;92685.66;5140319;27;20043;-74
2023/12/24 04:26:54;;;;;;;24.80;12.70;;;;;;;5.43;100.00;92693.28;5137214;27;20047;-75
2023/12/24 04:29:21;;;;;;;20.15;12.00;;;;;;;5.47;100.00;92698.78;5133230;27;20043;-74
2023/12/24 04:31:48;;;;;;;21.02;12.80;;;;;;;5.42;100.00;92684.06;5132146;27;20422;-74
2023/12/24 04:34:15;;;;;;;22.90;13.98;;;;;;;5.63;100.00;92700.19;5134792;27;20055;-74
2023/12/24 04:36:43;;;;;;;23.42;14.80;;;;;;;5.34;100.00;92658.78;5135942;27;20039;-74
2023/12/24 04:39:10;;;;;;;22.15;13.00;;;;;;;5.64;100.00;92686.47;5143745;27;20038;-73
2023/12/24 04:41:37;;;;;;;24.15;14.65;;;;;;;5.64;100.00;92693.34;5134187;27;20043;-73
2023/12/24 04:44:04;;;;;;;25.80;15.38;;;;;;;5.72;100.00;92708.47;5132445;27;20073;-74
2023/12/24 04:46:31;;;;;;;20.38;13.90;;;;;;;5.72;100.00;92711.00;5138027;27;20052;-74
2023/12/24 04:48:58;;;;;;;27.05;17.73;;;;;;;5.73;100.00;92712.56;5142582;27;20433;-75
2023/12/24 04:51:24;;;;;;;23.15;14.43;;;;;;;5.75;100.00;92716.50;5135513;27;20058;-74
2023/12/24 04:53:53;;;;;;;24.25;14.75;;;;;;;5.69;100.00;92703.75;5136079;27;20051;-74
2023/12/24 04:56:21;;;;;;;21.00;13.10;;;;;;;5.75;100.00;92705.53;5131763;27;20051;-75
2023/12/24 04:58:48;;;;;;;23.52;13.85;;;;;;;5.68;100.00;92705.50;5131234;27;20518;-74
2023/12/24 05:01:16;;;;;;;24.52;15.07;;;;;;;5.71;100.00;92705.13;5132592;27;20047;-74
2023/12/24 05:03:43;;;;;;;25.88;15.52;;;;;;;5.71;100.00;92725.53;5134347;27;20046;-74
2023/12/24 05:06:10;;;;;;;21.27;14.48;;;;;;;5.69;100.00;92721.59;5138155;27;20049;-74
2023/12/24 05:08:39;;;;;;;51.38;31.30;;;;;;;5.69;100.00;92737.66;5134117;27;20055;-75
2023/12/24 05:11:08;;;;;;;28.02;19.38;;;;;;;5.70;100.00;92739.22;5136654;27;20451;-74
2023/12/24 05:13:35;;;;;;;26.45;16.42;;;;;;;5.67;100.00;92743.91;5131621;27;20502;-74
2023/12/24 05:16:03;;;;;;;26.25;15.73;;;;;;;5.62;100.00;92749.59;5132176;27;20433;-74
2023/12/24 05:18:31;;;;;;;23.15;14.20;;;;;;;5.59;100.00;92740.56;5132285;27;20622;-74
2023/12/24 05:20:58;;;;;;;17.60;10.98;;;;;;;5.57;100.00;92739.19;5132297;27;20039;-74
2023/12/24 05:23:25;;;;;;;19.00;12.43;;;;;;;5.60;100.00;92729.41;5140199;27;20057;-74
2023/12/24 05:25:52;;;;;;;29.73;19.90;;;;;;;5.57;100.00;92734.09;5135388;27;20049;-74
2023/12/24 05:28:20;;;;;;;36.55;25.88;;;;;;;5.59;100.00;92744.88;5134257;27;20065;-74
2023/12/24 05:30:48;;;;;;;44.75;32.15;;;;;;;5.55;100.00;92757.19;5131160;27;20043;-74
2023/12/24 05:33:15;;;;;;;44.30;27.92;;;;;;;5.48;100.00;92764.81;5134469;27;20379;-75
2023/12/24 05:35:42;;;;;;;49.83;32.08;;;;;;;5.50;100.00;92751.13;5140606;27;20053;-73
2023/12/24 05:38:09;;;;;;;38.20;24.42;;;;;;;5.39;100.00;92737.94;5136973;27;20125;-74
2023/12/24 05:40:36;;;;;;;42.75;26.67;;;;;;;5.47;100.00;92759.94;5142583;27;20158;-75
2023/12/24 05:43:03;;;;;;;56.53;34.65;;;;;;;5.48;100.00;92759.72;5133087;27;20502;-74
2023/12/24 05:45:32;;;;;;;28.60;19.38;;;;;;;5.43;100.00;92748.53;5134510;27;20047;-74
2023/12/24 05:47:59;;;;;;;21.98;14.27;;;;;;;5.29;100.00;92747.69;5134827;27;20045;-74
2023/12/24 05:50:26;;;;;;;26.42;15.70;;;;;;;5.25;100.00;92746.47;5144640;27;20498;-74
2023/12/24 05:52:53;;;;;;;27.48;18.30;;;;;;;5.33;100.00;92764.16;5134195;27;20069;-75
2023/12/24 05:55:20;;;;;;;33.60;21.08;;;;;;;5.30;100.00;92746.69;5138712;27;20043;-75
2023/12/24 05:57:47;;;;;;;31.45;20.65;;;;;;;5.22;100.00;92748.44;5134954;27;20088;-75
2023/12/24 06:00:14;;;;;;;49.90;28.33;;;;;;;5.26;100.00;92760.78;5134770;27;20039;-74
2023/12/24 06:02:44;;;;;;;43.30;26.00;;;;;;;5.29;100.00;92760.41;5137171;27;20039;-75
2023/12/24 06:05:11;;;;;;;48.95;29.90;;;;;;;5.00;100.00;92734.97;5135778;27;20115;-75
2023/12/24 06:07:38;;;;;;;44.40;27.70;;;;;;;5.30;100.00;92778.06;5142438;27;20039;-75
2023/12/24 06:10:06;;;;;;;43.75;26.60;;;;;;;5.32;100.00;92781.19;5133354;27;20074;-75
2023/12/24 06:12:33;;;;;;;41.50;24.92;;;;;;;5.42;100.00;92792.81;5134441;27;20051;-75
2023/12/24 06:15:01;;;;;;;33.55;21.17;;;;;;;5.44;100.00;92778.91;5138998;27;20610;-75
2023/12/24 06:17:28;;;;;;;35.28;24.10;;;;;;;5.44;100.00;92760.28;5130496;27;20070;-75
2023/12/24 06:19:56;;;;;;;43.53;26.40;;;;;;;5.54;100.00;92768.38;5137131;27;20051;-75
2023/12/24 06:22:23;;;;;;;32.08;22.58;;;;;;;5.56;100.00;92786.78;5135623;27;20148;-75
2023/12/24 06:24:50;;;;;;;55.70;34.42;;;;;;;5.61;100.00;92787.00;5128250;27;20570;-75
2023/12/24 06:27:17;;;;;;;56.60;34.83;;;;;;;5.52;100.00;92782.28;5144390;27;20047;-75
2023/12/24 06:29:44;;;;;;;38.72;24.23;;;;;;;5.51;100.00;92786.56;5132313;27;20406;-75
2023/12/24 06:32:11;;;;;;;31.33;18.92;;;;;;;5.44;100.00;92789.09;5132554;27;20047;-74
2023/12/24 06:34:38;;;;;;;30.85;19.80;;;;;;;5.52;100.00;92788.16;5140181;27;20426;-75
2023/12/24 06:37:08;;;;;;;35.33;21.63;;;;;;;5.51;100.00;92773.84;5133301;27;20053;-74
2023/12/24 06:39:35;;;;;;;34.38;21.42;;;;;;;5.60;100.00;92788.00;5133842;27;20549;-74
2023/12/24 06:42:02;;;;;;;42.90;25.13;;;;;;;5.59;100.00;92796.63;5134392;27;20043;-73
2023/12/24 06:44:29;;;;;;;40.78;23.48;;;;;;;5.67;100.00;92788.03;5132182;27;20057;-73
2023/12/24 06:46:55;;;;;;;29.77;19.17;;;;;;;5.74;100.00;92805.91;5133189;27;20072;-73
2023/12/24 06:49:22;;;;;;;29.63;16.45;;;;;;;5.83;100.00;92820.03;5131104;27;20063;-73
2023/12/24 06:51:49;;;;;;;28.85;16.60;;;;;;;5.86;100.00;92814.59;5131047;27;20053;-74
2023/12/24 06:54:18;;;;;;;41.38;25.60;;;;;;;5.92;100.00;92825.75;5132735;27;20057;-73
2023/12/24 06:56:44;;;;;;;39.72;25.17;;;;;;;6.01;100.00;92816.19;5131626;27;20417;-73
2023/12/24 06:59:12;;;;;;;42.78;26.42;;;;;;;5.91;100.00;92806.34;5132783;27;20068;-73
2023/12/24 07:01:38;;;;;;;57.13;32.20;;;;;;;6.07;100.00;92817.22;5132404;27;20051;-73
2023/12/24 07:04:05;;;;;;;46.33;28.13;;;;;;;6.08;100.00;92817.03;5132356;27;20057;-73
2023/12/24 07:06:32;;;;;;;43.63;25.20;;;;;;;6.06;100.00;92821.53;5137642;27;20413;-73
2023/12/24 07:08:59;;;;;;;32.70;20.35;;;;;;;6.06;100.00;92829.19;5134565;27;20047;-73
2023/12/24 07:11:27;;;;;;;33.00;20.92;;;;;;;6.08;100.00;92823.91;5134682;27;20043;-73
2023/12/24 07:13:54;;;;;;;32.05;21.25;;;;;;;6.09;100.00;92828.81;5138587;27;20178;-73
2023/12/24 07:16:23;;;;;;;31.65;21.65;;;;;;;6.06;100.00;92828.41;5138436;27;20047;-73
2023/12/24 07:18:50;;;;;;;29.98;19.75;;;;;;;5.97;100.00;92827.75;5130073;27;20115;-73
2023/12/24 07:21:17;;;;;;;32.22;20.70;;;;;;;5.95;100.00;92830.50;5128500;27;20047;-72
2023/12/24 07:23:44;;;;;;;34.88;21.95;;;;;;;5.98;100.00;92827.56;5132768;27;20058;-72
2023/12/24 07:26:11;;;;;;;30.48;20.92;;;;;;;6.13;100.00;92821.56;5129750;27;20043;-72
2023/12/24 07:28:39;;;;;;;38.25;26.17;;;;;;;6.22;100.00;92822.97;5129727;27;20071;-72
2023/12/24 07:31:06;;;;;;;41.28;28.02;;;;;;;6.24;100.00;92807.44;5130020;27;20079;-72
2023/12/24 07:33:34;;;;;;;43.65;29.70;;;;;;;6.43;100.00;92810.25;5130946;27;20484;-72
2023/12/24 07:36:00;;;;;;;42.13;28.83;;;;;;;6.40;100.00;92814.75;5130637;27;20054;-72
2023/12/24 07:38:29;;;;;;;74.72;47.00;;;;;;;6.36;100.00;92828.09;5133324;27;20061;-73
2023/12/24 07:40:56;;;;;;;60.13;37.63;;;;;;;6.44;100.00;92815.16;5136297;27;20043;-72
2023/12/24 07:43:23;;;;;;;54.67;34.88;;;;;;;6.75;100.00;92830.91;5128915;27;20051;-73
2023/12/24 07:45:52;;;;;;;61.13;37.67;;;;;;;6.82;100.00;92841.91;5129553;27;20516;-73
2023/12/24 07:48:19;;;;;;;61.25;37.85;;;;;;;7.12;100.00;92850.97;5133013;27;20126;-73
2023/12/24 07:50:46;;;;;;;54.53;35.03;;;;;;;7.41;100.00;92851.53;5136053;27;20042;-73
2023/12/24 07:53:13;;;;;;;55.72;36.95;;;;;;;7.64;100.00;92860.53;5133702;27;20464;-73
2023/12/24 07:55:40;;;;;;;38.08;27.15;;;;;;;7.84;100.00;92863.03;5132337;27;20047;-73
2023/12/24 07:58:07;;;;;;;32.95;23.15;;;;;;;8.02;100.00;92867.53;5131041;27;20039;-73
2023/12/24 08:00:34;;;;;;;26.55;17.77;;;;;;;8.24;100.00;92859.56;5130731;27;20039;-74
2023/12/24 08:03:03;;;;;;;35.55;23.40;;;;;;;8.34;100.00;92843.78;5129513;27;20051;-73
2023/12/24 08:05:31;;;;;;;35.40;21.25;;;;;;;8.71;100.00;92866.25;5135495;27;20095;-73
2023/12/24 08:07:58;;;;;;;28.85;17.65;;;;;;;8.90;99.14;92869.69;5130140;27;20070;-73
2023/12/24 08:10:25;;;;;;;38.00;22.15;;;;;;;9.08;97.26;92856.91;5130164;27;20055;-73
2023/12/24 08:12:52;;;;;;;46.58;28.23;;;;;;;9.33;96.79;92863.03;5129547;27;20047;-73
2023/12/24 08:15:21;;;;;;;39.13;25.83;;;;;;;9.53;96.07;92859.53;5131097;27;20124;-73
2023/12/24 08:17:49;;;;;;;36.30;22.15;;;;;;;9.74;93.92;92848.88;5131899;27;20045;-73
2023/12/24 08:20:21;;;;;;;24.67;16.90;;;;;;;9.80;91.09;92833.59;5131782;27;20593;-73
2023/12/24 08:22:48;;;;;;;7.53;4.72;;;;;;;10.10;86.42;92863.69;5131658;27;20062;-73
2023/12/24 08:25:15;;;;;;;8.77;4.90;;;;;;;10.31;84.26;92880.41;5131039;27;20051;-73
2023/12/24 08:27:42;;;;;;;24.40;11.40;;;;;;;10.42;83.65;92889.97;5132267;27;20043;-73
2023/12/24 08:30:10;;;;;;;22.38;12.45;;;;;;;10.55;81.88;92885.69;5134062;27;20054;-73
2023/12/24 08:32:37;;;;;;;22.20;13.80;;;;;;;10.64;81.65;92881.81;5137503;27;20050;-73
2023/12/24 08:35:04;;;;;;;22.45;10.95;;;;;;;10.74;80.72;92875.38;5131161;27;20058;-74
2023/12/24 08:37:33;;;;;;;29.30;13.48;;;;;;;10.79;79.13;92867.81;5135720;27;20413;-74
2023/12/24 08:39:59;;;;;;;70.63;40.72;;;;;;;10.92;81.46;92856.56;5136014;27;20049;-73
2023/12/24 08:42:25;;;;;;;13.45;7.05;;;;;;;10.97;80.43;92854.09;5130649;27;20043;-73
2023/12/24 08:44:52;;;;;;;11.00;6.38;;;;;;;10.95;78.72;92850.97;5130599;27;20051;-74
2023/12/24 08:47:19;;;;;;;22.10;12.23;;;;;;;11.08;78.81;92858.47;5129923;27;20043;-74
2023/12/24 08:49:46;;;;;;;35.63;18.88;;;;;;;11.19;77.85;92846.66;5133937;27;20047;-73
2023/12/24 08:52:16;;;;;;;22.60;11.38;;;;;;;11.18;78.19;92847.66;5134011;27;20388;-73
2023/12/24 08:54:44;;;;;;;9.57;4.97;;;;;;;11.09;77.88;92852.34;5133645;27;20516;-74
2023/12/24 08:57:11;;;;;;;19.45;8.55;;;;;;;11.06;77.14;92854.59;5139442;27;20053;-74
2023/12/24 08:59:38;;;;;;;26.38;12.25;;;;;;;11.25;77.64;92862.19;5133350;27;20921;-74
2023/12/24 09:02:05;;;;;;;13.10;7.90;;;;;;;11.41;77.31;92869.25;5133300;27;20043;-74
2023/12/24 09:04:32;;;;;;;7.30;3.28;;;;;;;11.35;74.54;92836.72;5132949;27;20050;-74
2023/12/24 09:06:59;;;;;;;13.57;6.88;;;;;;;11.65;74.71;92866.69;5132884;27;20051;-74
2023/12/24 09:09:26;;;;;;;11.60;6.22;;;;;;;11.76;74.10;92862.56;5132098;27;20053;-74
2023/12/24 09:11:54;;;;;;;6.50;3.92;;;;;;;11.78;74.40;92850.22;5132671;27;20579;-74
2023/12/24 09:14:21;;;;;;;17.58;9.23;;;;;;;11.70;74.80;92856.50;5132628;27;20055;-74
2023/12/24 09:16:48;;;;;;;12.10;6.82;;;;;;;11.73;74.86;92853.50;5136418;27;20051;-73
2023/12/24 09:19:15;;;;;;;6.40;3.90;;;;;;;11.67;75.07;92849.22;5134114;27;20053;-73
2023/12/24 09:21:42;;;;;;;5.65;3.88;;;;;;;11.78;74.19;92855.38;5131883;27;20047;-73
2023/12/24 09:24:09;;;;;;;10.02;4.82;;;;;;;11.93;75.04;92861.84;5132296;27;20051;-73
2023/12/24 09:26:36;;;;;;;6.50;3.72;;;;;;;11.96;74.76;92853.66;5130892;27;20039;-73
2023/12/24 09:29:04;;;;;;;4.13;1.80;;;;;;;11.98;72.35;92862.72;5138140;27;20053;-73
2023/12/24 09:31:31;;;;;;;11.32;8.80;;;;;;;11.96;73.70;92838.22;5134087;27;20043;-74
2023/12/24 09:33:59;;;;;;;14.68;6.88;;;;;;;12.23;71.84;92868.66;5132331;27;20073;-73
2023/12/24 09:36:26;;;;;;;8.00;4.03;;;;;;;12.33;71.26;92874.00;5136580;27;20047;-73
2023/12/24 09:38:53;;;;;;;11.93;5.00;;;;;;;12.36;70.54;92865.03;5133905;27;20046;-73
2023/12/24 09:41:20;;;;;;;7.07;4.13;;;;;;;12.31;71.91;92865.69;5129430;27;20394;-73
2023/12/24 09:43:47;;;;;;;8.90;6.20;;;;;;;12.28;72.13;92858.44;5131037;27;20047;-73
2023/12/24 09:46:16;;;;;;;11.93;5.13;;;;;;;12.35;72.88;92856.50;5141008;27;20078;-73
2023/12/24 09:48:43;;;;;;;21.90;13.10;;;;;;;12.42;70.52;92854.56;5141908;27;20130;-73
2023/12/24 09:51:10;;;;;;;10.32;5.43;;;;;;;12.52;71.65;92853.22;5137395;27;20039;-74
2023/12/24 09:53:37;;;;;;;17.80;7.93;;;;;;;12.63;69.55;92857.53;5133945;27;20054;-74
2023/12/24 09:56:04;;;;;;;7.68;3.65;;;;;;;12.67;70.66;92857.84;5138399;27;20127;-74
2023/12/24 09:58:31;;;;;;;23.30;11.75;;;;;;;12.73;69.89;92861.31;5131842;27;20161;-73
2023/12/24 10:00:58;;;;;;;9.70;3.45;;;;;;;12.74;70.72;92855.13;5133400;27;20155;-74
2023/12/24 10:03:27;;;;;;;15.55;6.72;;;;;;;12.78;70.15;92859.59;5133815;27;20039;-74
2023/12/24 10:06:00;;;;;;;10.70;4.32;;;;;;;12.74;69.40;92837.91;5138623;27;20110;-74
2023/12/24 10:08:26;;;;;;;12.23;2.53;;;;;;;12.70;68.49;92822.09;5135007;27;20043;-74
2023/12/24 10:10:53;;;;;;;65.80;31.98;;;;;;;12.79;69.68;92816.56;5135403;27;20061;-73
2023/12/24 10:13:21;;;;;;;11.57;5.45;;;;;;;12.82;70.13;92826.41;5134511;27;20078;-74
2023/12/24 10:15:48;;;;;;;19.95;9.23;;;;;;;13.00;68.76;92815.09;5138704;27;20043;-74
2023/12/24 10:18:19;;;;;;;45.85;22.27;;;;;;;13.09;70.32;92812.91;5132675;27;20046;-73
2023/12/24 10:20:48;;;;;;;17.88;7.88;;;;;;;13.03;68.21;92811.25;5137791;27;20047;-74
2023/12/24 10:23:15;;;;;;;84.85;39.28;;;;;;;13.12;67.65;92802.13;5139180;27;20434;-74
2023/12/24 10:25:42;;;;;;;67.70;16.75;;;;;;;13.08;67.39;92790.72;5135422;27;20046;-73
2023/12/24 10:28:09;;;;;;;34.90;16.45;;;;;;;13.10;68.21;92781.72;5130244;27;20043;-73
2023/12/24 10:30:36;;;;;;;43.30;25.73;;;;;;;13.08;68.44;92788.94;5132265;27;20581;-73
2023/12/24 10:33:11;;;;;;;32.75;20.73;;;;;;;13.18;68.62;92785.72;5133550;27;20127;-73
2023/12/24 10:35:38;;;;;;;12.20;6.80;;;;;;;13.12;66.87;92781.50;5139634;27;20075;-73
2023/12/24 10:38:15;;;;;;;20.80;11.38;;;;;;;13.28;67.06;92768.84;5130996;27;20043;-73
2023/12/24 10:40:42;;;;;;;12.73;7.55;;;;;;;13.28;66.87;92774.00;5133222;27;20091;-73
2023/12/24 10:43:09;;;;;;;13.48;6.70;;;;;;;13.18;66.64;92769.44;5132574;27;20390;-74
2023/12/24 10:45:35;;;;;;;18.83;9.90;;;;;;;13.10;67.64;92771.41;5129532;27;20053;-73
2023/12/24 10:48:03;;;;;;;10.10;5.82;;;;;;;13.02;67.91;92773.63;5132334;27;20092;-73
2023/12/24 10:50:29;;;;;;;16.48;9.43;;;;;;;13.05;68.01;92761.03;5130215;27;20062;-73
2023/12/24 10:52:56;;;;;;;15.40;8.35;;;;;;;13.03;69.61;92759.69;5132603;27;20043;-73
2023/12/24 10:55:26;;;;;;;19.45;8.20;;;;;;;13.13;67.91;92766.78;5131811;27;20128;-73
2023/12/24 10:58:02;;;;;;;19.42;10.68;;;;;;;13.26;68.90;92752.78;5133133;27;20117;-73
2023/12/24 11:00:29;;;;;;;15.18;8.30;;;;;;;13.23;67.05;92754.84;5137790;27;21029;-73
2023/12/24 11:02:56;;;;;;;15.63;8.40;;;;;;;13.23;68.90;92747.09;5131126;27;20041;-73
2023/12/24 11:05:56;;;;;;;66.28;37.05;;;;;;;13.30;68.97;92752.09;5133765;27;20038;-73
2023/12/24 11:08:29;;;;;;;20.35;8.77;;;;;;;13.27;70.76;92759.50;5060756;28;20402;-73
2023/12/24 11:10:58;;;;;;;23.35;10.07;;;;;;;13.17;70.90;92737.75;5045574;28;20164;-73
2023/12/24 11:13:44;;;;;;;9.30;4.53;;;;;;;13.18;70.03;92753.97;5089361;27;20047;-73
2023/12/24 11:16:13;;;;;;;6.32;3.50;;;;;;;13.03;69.20;92767.44;5131465;27;20068;-73
2023/12/24 11:18:45;;;;;;;5.15;3.33;;;;;;;13.03;69.16;92764.84;5131176;27;20510;-74
2023/12/24 11:21:13;;;;;;;8.38;4.80;;;;;;;12.96;70.32;92745.19;5130559;27;20764;-73